createdAt,value
2022-12-08T00:01:33.823Z,98341.00
2022-12-08T00:04:03.156Z,98333.63
2022-12-08T00:07:00.377Z,98330.41
2022-12-08T00:09:40.696Z,98326.50
2022-12-08T00:12:15.258Z,98322.22
2022-12-08T00:14:49.817Z,98322.00
2022-12-08T00:17:17.819Z,98314.88
2022-12-08T00:19:45.959Z,98317.44
2022-12-08T00:22:14.813Z,98308.69
2022-12-08T00:24:45.565Z,98310.69
2022-12-08T00:27:16.165Z,98308.03
2022-12-08T00:29:45.529Z,98307.75
2022-12-08T00:32:14.772Z,98304.78
2022-12-08T00:34:42.922Z,98304.97
2022-12-08T00:37:10.814Z,98306.28
2022-12-08T00:39:38.696Z,98302.47
2022-12-08T00:44:58.367Z,98301.94
2022-12-08T00:47:26.435Z,98307.03
2022-12-08T01:00:56.367Z,98321.38
2022-12-08T01:03:25.569Z,98315.84
2022-12-08T01:05:53.500Z,98302.22
2022-12-08T01:08:21.463Z,98302.97
2022-12-08T01:10:49.397Z,98304.00
2022-12-08T01:13:17.315Z,98303.34
2022-12-08T01:15:45.160Z,98303.06
2022-12-08T01:18:13.068Z,98305.19
2022-12-08T01:20:40.913Z,98305.88
2022-12-08T01:23:08.832Z,98306.38
2022-12-08T01:25:36.714Z,98308.88
2022-12-08T01:28:04.791Z,98306.53
2022-12-08T01:30:33.107Z,98310.34
2022-12-08T01:33:01.917Z,98286.84
2022-12-08T01:35:29.781Z,98297.97
2022-12-08T01:37:57.774Z,98296.16
2022-12-08T01:40:25.662Z,98301.34
2022-12-08T01:42:53.541Z,98289.41
2022-12-08T01:45:32.570Z,98285.28
2022-12-08T01:48:06.250Z,98278.69
2022-12-08T01:50:34.479Z,98276.41
2022-12-08T01:53:12.881Z,98277.47
2022-12-08T01:56:10.211Z,98281.38
2022-12-08T01:58:42.981Z,98274.34
2022-12-08T02:01:11.885Z,98270.84
2022-12-08T02:03:44.477Z,98270.25
2022-12-08T02:06:12.827Z,98272.13
2022-12-08T02:08:41.961Z,98268.41
2022-12-08T02:11:11.350Z,98261.66
2022-12-08T02:13:41.806Z,98262.72
2022-12-08T02:16:31.857Z,98256.22
2022-12-08T02:19:33.249Z,98257.25
2022-12-08T02:22:07.156Z,98262.44
2022-12-08T02:24:34.958Z,98267.31
2022-12-08T02:27:28.795Z,98255.06
2022-12-08T02:30:02.717Z,98253.34
2022-12-08T02:32:49.871Z,98260.22
2022-12-08T02:35:45.194Z,98255.16
2022-12-08T02:38:25.136Z,98250.00
2022-12-08T02:41:11.251Z,98247.00
2022-12-08T02:43:49.031Z,98238.50
2022-12-08T02:46:27.036Z,98246.00
2022-12-08T02:48:56.157Z,98243.78
2022-12-08T02:51:24.106Z,98222.41
2022-12-08T02:53:52.662Z,98234.06
2022-12-08T02:56:50.353Z,98225.78
2022-12-08T02:59:37.153Z,98236.53
2022-12-08T03:02:44.023Z,98238.03
2022-12-08T03:05:14.674Z,98235.84
2022-12-08T03:08:23.059Z,98233.25
2022-12-08T03:11:09.705Z,98229.09
2022-12-08T03:13:51.267Z,98224.84
2022-12-08T03:16:24.859Z,98227.66
2022-12-08T03:19:02.041Z,98224.94
2022-12-08T03:21:32.588Z,98225.38
2022-12-08T03:24:04.811Z,98215.50
2022-12-08T03:27:07.433Z,98218.03
2022-12-08T03:29:35.771Z,98213.28
2022-12-08T03:32:22.708Z,98205.00
2022-12-08T03:34:51.977Z,98203.91
2022-12-08T03:37:20.708Z,98201.50
2022-12-08T03:39:48.837Z,98192.88
2022-12-08T03:42:16.924Z,98197.47
2022-12-08T03:44:44.850Z,98190.31
2022-12-08T03:47:12.750Z,98191.88
2022-12-08T03:49:40.879Z,98192.41
2022-12-08T03:52:08.764Z,98188.16
2022-12-08T03:54:36.695Z,98175.94
2022-12-08T03:57:04.665Z,98181.78
2022-12-08T03:59:32.559Z,98188.09
2022-12-08T04:02:00.502Z,98188.97
2022-12-08T04:04:28.399Z,98183.81
2022-12-08T04:06:56.275Z,98180.09
2022-12-08T04:09:24.211Z,98181.97
2022-12-08T04:11:52.119Z,98183.75
2022-12-08T04:14:20.085Z,98189.22
2022-12-08T04:16:47.979Z,98189.00
2022-12-08T04:19:15.893Z,98190.63
2022-12-08T04:21:43.780Z,98182.06
2022-12-08T04:24:11.741Z,98185.81
2022-12-08T04:26:39.653Z,98184.22
2022-12-08T04:29:07.558Z,98186.00
2022-12-08T04:31:35.525Z,98181.25
2022-12-08T04:34:03.745Z,98161.94
2022-12-08T04:36:31.874Z,98187.78
2022-12-08T04:39:00.346Z,98185.94
2022-12-08T04:41:28.258Z,98179.00
2022-12-08T04:43:56.137Z,98185.13
2022-12-08T04:46:24.142Z,98189.69
2022-12-08T04:48:52.011Z,98185.66
2022-12-08T04:51:21.179Z,98182.81
2022-12-08T04:53:49.130Z,98181.28
2022-12-08T04:56:18.790Z,98181.66
2022-12-08T04:58:47.148Z,98171.69
2022-12-08T05:01:15.184Z,98172.09
2022-12-08T05:03:43.183Z,98167.22
2022-12-08T05:06:14.052Z,98166.56
2022-12-08T05:08:43.592Z,98161.81
2022-12-08T05:11:12.686Z,98163.13
2022-12-08T05:13:40.721Z,98162.41
2022-12-08T05:16:11.273Z,98168.69
2022-12-08T05:18:40.939Z,98162.84
2022-12-08T05:21:09.573Z,98158.03
2022-12-08T05:23:37.517Z,98159.41
2022-12-08T05:26:05.595Z,98164.97
2022-12-08T05:28:42.753Z,98164.28
2022-12-08T05:31:13.461Z,98154.63
2022-12-08T05:33:42.342Z,98165.91
2022-12-08T05:36:13.109Z,98161.59
2022-12-08T05:38:41.537Z,98157.34
2022-12-08T05:41:11.839Z,98157.91
2022-12-08T05:43:39.769Z,98158.22
2022-12-08T05:46:08.391Z,98157.34
2022-12-08T05:48:36.408Z,98152.78
2022-12-08T05:51:04.573Z,98152.44
2022-12-08T05:53:32.503Z,98152.75
2022-12-08T05:56:00.439Z,98157.56
2022-12-08T05:58:28.402Z,98154.56
2022-12-08T06:00:56.289Z,98165.72
2022-12-08T06:03:24.208Z,98157.41
2022-12-08T06:05:52.391Z,98158.47
2022-12-08T06:08:20.789Z,98154.47
2022-12-08T06:10:48.814Z,98157.97
2022-12-08T06:13:16.793Z,98162.34
2022-12-08T06:15:45.140Z,98162.25
2022-12-08T06:18:13.506Z,98159.94
2022-12-08T06:20:41.431Z,98160.09
2022-12-08T06:23:10.256Z,98161.78
2022-12-08T06:25:38.631Z,98157.59
2022-12-08T06:28:07.233Z,98162.59
2022-12-08T06:30:35.562Z,98157.09
2022-12-08T06:33:03.487Z,98154.25
2022-12-08T06:35:31.427Z,98153.38
2022-12-08T06:37:59.636Z,98155.97
2022-12-08T06:40:27.525Z,98168.16
2022-12-08T06:42:55.379Z,98160.13
2022-12-08T06:45:23.294Z,98158.81
2022-12-08T06:47:51.222Z,98150.28
2022-12-08T06:50:19.139Z,98151.72
2022-12-08T06:52:57.006Z,98155.00
2022-12-08T06:58:19.569Z,98164.81
2022-12-08T07:00:47.538Z,98164.16
2022-12-08T07:03:15.921Z,98168.94
2022-12-08T07:05:43.782Z,98158.69
2022-12-08T07:08:11.711Z,98143.97
2022-12-08T07:10:39.717Z,98155.91
2022-12-08T07:13:07.589Z,98166.28
2022-12-08T07:15:35.558Z,98160.75
2022-12-08T07:18:03.629Z,98167.69
2022-12-08T07:20:31.621Z,98161.25
2022-12-08T07:22:59.503Z,98154.22
2022-12-08T07:25:27.487Z,98157.25
2022-12-08T07:27:55.443Z,98153.97
2022-12-08T07:30:23.597Z,98148.25
2022-12-08T07:32:51.516Z,98158.72
2022-12-08T07:35:19.640Z,98157.75
2022-12-08T07:37:47.520Z,98162.03
2022-12-08T07:40:15.651Z,98156.53
2022-12-08T07:42:43.646Z,98155.94
2022-12-08T07:45:11.554Z,98153.97
2022-12-08T07:47:39.428Z,98155.59
2022-12-08T07:50:08.240Z,98160.47
2022-12-08T07:52:36.262Z,98156.50
2022-12-08T07:55:04.463Z,98159.78
2022-12-08T07:57:32.405Z,98155.72
2022-12-08T08:00:00.296Z,98155.25
2022-12-08T08:02:28.359Z,98162.97
2022-12-08T08:04:56.414Z,98153.72
2022-12-08T08:07:24.313Z,98157.03
2022-12-08T08:09:52.216Z,98154.34
2022-12-08T08:12:31.477Z,98153.69
2022-12-08T08:15:07.421Z,98153.34
2022-12-08T08:17:37.468Z,98152.44
2022-12-08T08:20:07.705Z,98147.56
2022-12-08T08:22:36.850Z,98144.66
2022-12-08T08:25:05.688Z,98150.69
2022-12-08T08:27:33.575Z,98154.13
2022-12-08T08:30:01.618Z,98154.81
2022-12-08T08:32:33.873Z,98149.22
2022-12-08T08:35:02.093Z,98157.66
2022-12-08T08:37:29.977Z,98147.47
2022-12-08T08:39:57.878Z,98156.84
2022-12-08T08:42:25.818Z,98152.22
2022-12-08T08:44:54.927Z,98149.03
2022-12-08T08:47:22.901Z,98152.19
2022-12-08T08:49:50.846Z,98169.06
2022-12-08T08:52:18.766Z,98158.22
2022-12-08T08:54:46.734Z,98159.22
2022-12-08T08:57:14.614Z,98160.59
2022-12-08T08:59:42.538Z,98160.03
2022-12-08T09:02:17.248Z,98171.28
2022-12-08T09:04:45.596Z,98169.69
2022-12-08T09:07:14.498Z,98167.22
2022-12-08T09:09:42.449Z,98166.63
2022-12-08T09:12:10.524Z,98170.59
2022-12-08T09:14:38.627Z,98173.03
2022-12-08T09:17:06.974Z,98160.31
2022-12-08T09:19:35.505Z,98153.22
2022-12-08T09:22:04.618Z,98153.75
2022-12-08T09:24:32.513Z,98158.78
2022-12-08T09:27:00.471Z,98159.91
2022-12-08T09:29:34.030Z,98155.06
2022-12-08T09:32:04.543Z,98138.19
2022-12-08T09:34:32.739Z,98142.59
2022-12-08T09:37:00.669Z,98146.22
2022-12-08T09:39:28.753Z,98142.31
2022-12-08T09:42:02.289Z,98134.97
2022-12-08T09:44:45.497Z,98141.19
2022-12-08T09:47:22.162Z,98127.22
2022-12-08T09:50:13.649Z,98116.19
2022-12-08T09:52:53.345Z,98114.13
2022-12-08T09:55:29.250Z,98109.00
2022-12-08T09:58:02.033Z,98109.91
2022-12-08T10:00:30.653Z,98101.84
2022-12-08T10:02:59.973Z,98105.88
2022-12-08T10:05:32.607Z,98093.66
2022-12-08T10:08:10.100Z,98093.34
2022-12-08T10:10:43.072Z,98098.38
2022-12-08T10:13:40.927Z,98097.59
2022-12-08T10:16:28.029Z,98091.94
2022-12-08T10:19:15.387Z,98086.84
2022-12-08T10:21:43.685Z,98084.25
2022-12-08T10:24:39.128Z,98087.66
2022-12-08T10:27:13.454Z,98066.31
2022-12-08T10:29:41.359Z,98080.59
2022-12-08T10:32:22.044Z,98073.72
2022-12-08T10:35:09.319Z,98065.88
2022-12-08T10:37:37.285Z,98067.22
2022-12-08T10:40:16.887Z,98065.00
2022-12-08T10:42:50.605Z,98049.06
2022-12-08T10:45:41.664Z,98060.09
2022-12-08T10:48:31.154Z,98050.56
2022-12-08T10:51:00.579Z,98040.97
2022-12-08T10:53:29.463Z,98035.50
2022-12-08T10:56:03.208Z,98030.81
2022-12-08T10:58:45.267Z,98022.41
2022-12-08T11:01:26.756Z,98010.75
2022-12-08T11:04:01.323Z,98025.38
2022-12-08T11:06:29.161Z,98016.66
2022-12-08T11:09:04.101Z,98011.13
2022-12-08T11:11:45.805Z,98001.53
2022-12-08T11:14:27.880Z,97999.09
2022-12-08T11:17:08.040Z,98002.03
2022-12-08T11:19:45.096Z,97996.25
2022-12-08T11:22:32.651Z,97996.44
2022-12-08T11:25:10.996Z,97997.88
2022-12-08T11:27:42.014Z,97984.72
2022-12-08T11:30:37.319Z,97987.94
2022-12-08T11:33:24.974Z,97985.69
2022-12-08T11:36:00.135Z,97977.66
2022-12-08T11:38:29.324Z,97969.34
2022-12-08T11:41:22.279Z,97970.16
2022-12-08T11:44:04.375Z,97965.38
2022-12-08T11:46:35.822Z,97960.88
2022-12-08T11:49:11.126Z,97965.03
2022-12-08T11:51:44.996Z,97969.53
2022-12-08T11:54:25.513Z,97970.34
2022-12-08T11:56:57.304Z,97952.72
2022-12-08T11:59:47.238Z,97953.19
2022-12-08T12:02:21.269Z,97948.06
2022-12-08T12:04:59.482Z,97950.31
2022-12-08T12:07:46.754Z,97952.91
2022-12-08T12:10:39.652Z,97949.03
2022-12-08T12:13:35.848Z,97935.59
2022-12-08T12:16:19.128Z,97941.19
2022-12-08T12:18:55.551Z,97937.47
2022-12-08T12:21:33.564Z,97932.69
2022-12-08T12:24:08.179Z,97928.38
2022-12-08T12:26:41.839Z,97932.03
2022-12-08T12:29:21.361Z,97919.38
2022-12-08T12:31:59.353Z,97909.78
2022-12-08T12:34:31.843Z,97913.75
2022-12-08T12:37:12.150Z,97918.41
2022-12-08T12:39:52.361Z,97915.81
2022-12-08T12:42:40.712Z,97918.06
2022-12-08T12:45:12.159Z,97913.25
2022-12-08T12:47:55.819Z,97906.84
2022-12-08T12:50:33.380Z,97910.56
2022-12-08T12:53:09.124Z,97904.13
2022-12-08T12:55:46.149Z,97904.94
2022-12-08T12:58:22.549Z,97903.66
2022-12-08T13:00:50.461Z,97911.19
2022-12-08T13:03:18.537Z,97903.66
2022-12-08T13:05:52.312Z,97911.97
2022-12-08T13:08:23.994Z,97910.38
2022-12-08T13:11:01.905Z,97902.66
2022-12-08T13:13:30.137Z,97894.66
2022-12-08T13:16:18.575Z,97891.75
2022-12-08T13:18:49.946Z,97901.72
2022-12-08T13:21:23.212Z,97889.56
2022-12-08T13:24:13.821Z,97895.97
2022-12-08T13:26:46.401Z,97890.06
2022-12-08T13:29:15.511Z,97891.63
2022-12-08T13:31:58.963Z,97894.69
2022-12-08T13:34:58.243Z,97890.34
2022-12-08T13:37:31.976Z,97892.09
2022-12-08T13:40:09.873Z,97885.41
2022-12-08T13:43:02.592Z,97894.88
2022-12-08T13:46:18.320Z,97900.16
2022-12-08T13:57:35.095Z,97888.13
2022-12-08T14:00:13.254Z,97892.44
2022-12-08T14:02:55.121Z,97892.16
2022-12-08T14:05:47.667Z,97895.84
2022-12-08T14:08:57.471Z,97895.69
2022-12-08T14:11:38.941Z,97888.16
2022-12-08T14:17:23.918Z,97887.84
2022-12-08T14:20:01.337Z,97890.41
2022-12-08T14:22:34.988Z,97896.81
2022-12-08T14:25:04.736Z,97899.84
2022-12-08T14:27:35.987Z,97893.13
2022-12-08T14:30:15.926Z,97886.53
2022-12-08T14:32:44.392Z,97888.31
2022-12-08T14:35:19.327Z,97897.09
2022-12-08T14:37:50.712Z,97899.50
2022-12-08T14:40:22.736Z,97895.66
2022-12-08T14:42:54.621Z,97907.81
2022-12-08T14:45:22.553Z,97896.72
2022-12-08T14:47:51.195Z,97897.41
2022-12-08T14:50:43.453Z,97890.34
2022-12-08T14:53:15.256Z,97886.50
2022-12-08T14:55:46.238Z,97886.63
2022-12-08T14:58:24.302Z,97887.91
2022-12-08T15:00:58.335Z,97890.19
2022-12-08T15:03:29.054Z,97891.59
2022-12-08T15:06:00.368Z,97896.22
2022-12-08T15:08:28.556Z,97892.19
2022-12-08T15:11:21.290Z,97897.63
2022-12-08T15:13:52.736Z,97896.81
2022-12-08T15:16:40.228Z,97908.63
2022-12-08T15:19:16.862Z,97905.41
2022-12-08T15:21:46.638Z,97898.66
2022-12-08T15:24:15.538Z,97886.94
2022-12-08T15:26:48.857Z,97901.94
2022-12-08T15:29:28.314Z,97896.19
2022-12-08T15:32:01.470Z,97893.16
2022-12-08T15:34:29.342Z,97910.72
2022-12-08T15:36:57.391Z,97907.34
2022-12-08T15:39:35.625Z,97907.97
2022-12-08T15:42:10.089Z,97898.19
2022-12-08T15:44:38.544Z,97897.72
2022-12-08T15:47:07.080Z,97904.41
2022-12-08T15:49:35.039Z,97915.03
2022-12-08T15:52:10.820Z,97907.75
2022-12-08T15:54:39.372Z,97904.03
2022-12-08T15:57:22.212Z,97907.31
2022-12-08T16:00:05.228Z,97883.22
2022-12-08T16:02:56.258Z,97897.81
2022-12-08T16:05:44.224Z,97903.50
2022-12-08T16:08:44.750Z,97904.31
2022-12-08T16:11:56.474Z,97911.31
2022-12-08T16:14:48.720Z,97908.00
2022-12-08T16:17:01.279Z,97910.47
2022-12-08T16:19:29.233Z,97909.38
2022-12-08T16:24:45.099Z,97892.00
2022-12-08T16:30:22.274Z,97908.94
2022-12-08T16:32:51.128Z,97894.50
2022-12-08T16:35:19.039Z,97903.78
2022-12-08T16:37:47.043Z,97914.09
2022-12-08T16:40:15.323Z,97916.00
2022-12-08T16:42:47.777Z,97913.28
2022-12-08T16:45:21.007Z,97909.53
2022-12-08T16:47:54.968Z,97905.22
2022-12-08T16:50:34.824Z,97896.28
2022-12-08T16:53:09.006Z,97893.06
2022-12-08T16:55:36.933Z,97895.09
2022-12-08T16:58:05.181Z,97898.72
2022-12-08T17:00:37.064Z,97903.25
2022-12-08T17:03:08.150Z,97902.59
2022-12-08T17:05:36.137Z,97897.41
2022-12-08T17:08:04.665Z,97899.78
2022-12-08T17:10:34.538Z,97892.41
2022-12-08T17:13:02.726Z,97896.22
2022-12-08T17:15:30.809Z,97899.06
2022-12-08T17:17:58.682Z,97899.06
2022-12-08T17:20:28.367Z,97897.34
2022-12-08T17:22:58.125Z,97891.78
2022-12-08T17:25:26.628Z,97886.84
2022-12-08T17:27:56.255Z,97886.13
2022-12-08T17:30:24.327Z,97897.47
2022-12-08T17:32:52.899Z,97884.75
2022-12-08T17:35:21.626Z,97884.34
2022-12-08T17:37:49.774Z,97890.16
2022-12-08T17:40:17.934Z,97892.22
2022-12-08T17:42:46.424Z,97887.38
2022-12-08T17:45:14.360Z,97894.44
2022-12-08T17:47:42.302Z,97895.00
2022-12-08T17:50:10.589Z,97896.59
2022-12-08T17:52:38.573Z,97900.59
2022-12-08T17:55:07.026Z,97899.31
2022-12-08T17:57:34.912Z,97894.69
2022-12-08T18:00:04.184Z,97904.56
2022-12-08T18:02:39.872Z,97906.84
2022-12-08T18:05:08.195Z,97899.22
2022-12-08T18:07:36.169Z,97900.84
2022-12-08T18:10:04.825Z,97897.72
2022-12-08T18:12:33.278Z,97895.44
2022-12-08T18:15:02.048Z,97892.81
2022-12-08T18:17:30.426Z,97893.03
2022-12-08T18:19:58.378Z,97890.81
2022-12-08T18:22:27.015Z,97883.19
2022-12-08T18:24:55.001Z,97891.31
2022-12-08T18:27:23.336Z,97891.38
2022-12-08T18:29:51.410Z,97883.66
2022-12-08T18:32:23.506Z,97894.00
2022-12-08T18:34:51.434Z,97886.44
2022-12-08T18:37:19.885Z,97885.78
2022-12-08T18:39:48.010Z,97883.63
2022-12-08T18:42:25.117Z,97876.94
2022-12-08T18:45:06.820Z,97885.63
2022-12-08T18:47:37.561Z,97877.91
2022-12-08T18:50:08.219Z,97878.53
2022-12-08T18:52:36.260Z,97875.13
2022-12-08T18:55:06.993Z,97875.72
2022-12-08T18:57:40.043Z,97881.84
2022-12-08T19:00:11.815Z,97873.13
2022-12-08T19:02:41.585Z,97875.19
2022-12-08T19:05:11.733Z,97881.31
2022-12-08T19:07:39.882Z,97868.69
2022-12-08T19:10:08.757Z,97869.91
2022-12-08T19:12:36.997Z,97871.78
2022-12-08T19:15:06.131Z,97844.22
2022-12-08T19:17:34.389Z,97860.25
2022-12-08T19:20:02.355Z,97856.44
2022-12-08T19:22:30.365Z,97849.41
2022-12-08T19:24:58.282Z,97853.66
2022-12-08T19:27:29.038Z,97845.03
2022-12-08T19:29:56.996Z,97849.03
2022-12-08T19:32:25.058Z,97852.81
2022-12-08T19:34:53.217Z,97850.91
2022-12-08T19:37:21.226Z,97857.31
2022-12-08T19:40:08.430Z,97861.47
2022-12-08T19:42:55.165Z,97868.38
2022-12-08T19:45:23.329Z,97870.09
2022-12-08T19:47:51.449Z,97868.16
2022-12-08T19:50:37.835Z,97882.38
2022-12-08T19:53:10.106Z,97885.69
2022-12-08T19:55:39.155Z,97886.31
2022-12-08T19:58:07.768Z,97885.31
2022-12-08T20:00:38.021Z,97894.66
2022-12-08T20:03:06.974Z,97874.13
2022-12-08T20:05:36.527Z,97875.38
2022-12-08T20:08:04.807Z,97871.50
2022-12-08T20:10:38.821Z,97868.03
2022-12-08T20:13:26.741Z,97866.81
2022-12-08T20:15:55.068Z,97871.13
2022-12-08T20:18:23.195Z,97868.84
2022-12-08T20:20:51.537Z,97867.25
2022-12-08T20:23:19.493Z,97860.69
2022-12-08T20:25:47.869Z,97868.28
2022-12-08T20:28:16.244Z,97870.63
2022-12-08T20:30:46.880Z,97868.94
2022-12-08T20:33:16.765Z,97877.31
2022-12-08T20:35:46.019Z,97872.97
2022-12-08T20:38:13.989Z,97881.09
2022-12-08T20:40:43.839Z,97884.19
2022-12-08T20:43:12.175Z,97883.19
2022-12-08T20:45:40.257Z,97888.81
2022-12-08T20:48:08.227Z,97885.75
2022-12-08T20:50:36.230Z,97869.88
2022-12-08T20:53:04.305Z,97875.28
2022-12-08T20:55:32.359Z,97885.38
2022-12-08T20:58:00.506Z,97884.78
2022-12-08T21:00:28.507Z,97884.16
2022-12-08T21:02:57.434Z,97883.19
2022-12-08T21:05:25.641Z,97892.69
2022-12-08T21:07:54.124Z,97889.81
2022-12-08T21:10:22.198Z,97876.31
2022-12-08T21:12:50.137Z,97870.97
2022-12-08T21:15:18.285Z,97870.69
2022-12-08T21:17:46.587Z,97873.00
2022-12-08T21:20:14.623Z,97885.19
2022-12-08T21:22:42.955Z,97886.63
2022-12-08T21:25:11.003Z,97878.88
2022-12-08T21:27:39.205Z,97885.09
2022-12-08T21:30:08.904Z,97889.59
2022-12-08T21:32:40.135Z,97890.03
2022-12-08T21:35:09.253Z,97889.75
2022-12-08T21:37:37.689Z,97881.13
2022-12-08T21:40:06.824Z,97874.41
2022-12-08T21:42:44.590Z,97868.88
2022-12-08T21:45:16.949Z,97867.34
2022-12-08T21:47:47.194Z,97869.88
2022-12-08T21:50:15.889Z,97881.03
2022-12-08T21:52:47.625Z,97873.31
2022-12-08T21:55:20.324Z,97872.81
2022-12-08T21:57:48.540Z,97884.47
2022-12-08T22:00:17.675Z,97865.50
2022-12-08T22:02:46.984Z,97879.97
2022-12-08T22:05:15.352Z,97887.34
2022-12-08T22:07:43.774Z,97883.47
2022-12-08T22:10:12.237Z,97888.09
2022-12-08T22:12:40.876Z,97882.41
2022-12-08T22:15:11.360Z,97862.94
2022-12-08T22:17:41.395Z,97869.19
2022-12-08T22:20:13.292Z,97869.44
2022-12-08T22:22:42.230Z,97872.94
2022-12-08T22:25:12.031Z,97875.47
2022-12-08T22:27:40.713Z,97859.78
2022-12-08T22:30:10.426Z,97874.31
2022-12-08T22:32:39.125Z,97868.38
2022-12-08T22:35:07.356Z,97870.09
2022-12-08T22:37:35.214Z,97876.00
2022-12-08T22:40:03.915Z,97878.19
2022-12-08T22:42:32.264Z,97884.91
2022-12-08T22:45:00.199Z,97883.94
2022-12-08T22:47:28.457Z,97875.78
2022-12-08T22:49:56.392Z,97866.97
2022-12-08T22:52:24.302Z,97861.56
2022-12-08T22:54:52.480Z,97851.56
2022-12-08T22:57:20.447Z,97859.66
2022-12-08T22:59:48.391Z,97864.91
2022-12-08T23:02:16.230Z,97855.78
2022-12-08T23:04:46.359Z,97853.94
2022-12-08T23:07:14.885Z,97862.66
2022-12-08T23:09:43.574Z,97858.16
2022-12-08T23:12:11.425Z,97860.31
2022-12-08T23:14:39.547Z,97868.78
2022-12-08T23:17:08.116Z,97866.53
2022-12-08T23:19:36.929Z,97860.09
2022-12-08T23:22:04.998Z,97854.88
2022-12-08T23:24:33.017Z,97855.84
2022-12-08T23:27:01.125Z,97847.78
2022-12-08T23:29:29.062Z,97836.22
2022-12-08T23:31:56.991Z,97840.34
2022-12-08T23:34:25.052Z,97835.59
2022-12-08T23:36:52.990Z,97831.16
2022-12-08T23:39:24.153Z,97823.63
2022-12-08T23:41:52.307Z,97835.19
2022-12-08T23:44:20.275Z,97827.50
2022-12-08T23:46:48.506Z,97819.44
2022-12-08T23:49:16.945Z,97815.66
2022-12-08T23:51:44.884Z,97816.69
2022-12-08T23:54:12.912Z,97809.78
2022-12-08T23:56:41.764Z,97812.91
2022-12-08T23:59:10.016Z,97819.63
